Aeroporto :
LOGIN :

Iscrizione | Disclaimer

   EN    FR    IT 

 










Sommario :    VFR   VFR Marginale   IFR   IFR Intensivo   IFR Molto Intensivo
Visibilità : 
Base nubi : 
>= 8 km
>= 3000ft
5 / 8 km
1000 / 3000 ft
1500m / 5 km
500 / 1000 ft
800 / 1500m
200 / 500 ft
< 800m
< 200 ft
Simboli :   Temporali  Nebbia  Neve Forte  Precipitazioni Forti  Vento > 20 kt
SIGMETs :   Varie  Temporali  Ghiacco  Turbolenza  Onda orograficha  Ceneri Vulcaniche






- Altitudine del aeroporto : 788 ft
- Codice IATA : DCM


LFCK - Castres-Mazamet

ULTIMO METAR :
  • 122330Z AUTO 30006KT 9999 BKN007 BKN025 BKN034 08/08 Q1007

METARs OBSOLETI :
  • 122300Z AUTO 29007KT 9999 BKN007 BKN027 OVC037 08/08 Q1007
  • 122230Z AUTO 30008KT 9999 -RADZ OVC007 08/08 Q1007
  • 122200Z AUTO 30007KT 9999 -DZ BKN008 BKN038 BKN049 09/08 Q1007 TEMPO 4500 SHRA BKN006 SCT022TCU
  • 122130Z AUTO 29009KT 9999 -DZ BKN007/// OVC043/// ///TCU 09/08 Q1008 TEMPO 4500 SHRA
  • 122100Z AUTO 27008KT 9999 BKN006/// OVC040/// ///TCU 08/08 Q1008 TEMPO 4500 SHRA

TAF TAF LFCK
Valido dal 12 a 18 ore il 13 a 03 ore UTC


121700Z 1218/1303 31010KT 9999 BKN030
TEMPO 1218/1224 4500 SHRA BKN006 SCT022TCU
BECMG 1300/1302 BKN006
PROB40
TEMPO 1300/1303 3000 BR



MetMap, La meteo Aeronautica in un colpo d'occhio ! - Copyright ORBIFLY Dicembre 2007 - Disclaimer

ORBIFLY MET'MAP TEAM :

Programmazione e sviluppo : Alexandra Zaïnal
Concezione e sviluppo : Baudouin d'Aumeries
Co-Programmazione e sviluppo : Marc-Olivier Méhu
Supporto tecnico e logistico : Manuel Goepfert
Aiuto per la traduzione : Arnaldo La Scala

Contatto : metmap@orbifly.com




FONTI E CREDITI :

   NOAA